sensor_id;sensor_type;location;lat;lon;timestamp;P1;durP1;ratioP1;P2;durP2;ratioP2
4857;SDS011;58975;51.978;8.472;2023-04-19T00:04:53;7.35;;;4.10;;
4857;SDS011;58975;51.978;8.472;2023-04-19T00:09:50;4.20;;;3.13;;
4857;SDS011;58975;51.978;8.472;2023-04-19T00:14:47;6.70;;;3.28;;
4857;SDS011;58975;51.978;8.472;2023-04-19T00:19:43;8.80;;;3.50;;
4857;SDS011;58975;51.978;8.472;2023-04-19T00:24:40;5.72;;;2.72;;
4857;SDS011;58975;51.978;8.472;2023-04-19T00:29:36;7.60;;;3.50;;
4857;SDS011;58975;51.978;8.472;2023-04-19T00:34:32;4.20;;;2.72;;
4857;SDS011;58975;51.978;8.472;2023-04-19T00:39:29;4.57;;;2.67;;
4857;SDS011;58975;51.978;8.472;2023-04-19T00:44:26;5.47;;;3.22;;
4857;SDS011;58975;51.978;8.472;2023-04-19T00:49:22;4.32;;;2.88;;
4857;SDS011;58975;51.978;8.472;2023-04-19T00:54:19;3.67;;;2.80;;
4857;SDS011;58975;51.978;8.472;2023-04-19T00:59:16;10.00;;;3.15;;
4857;SDS011;58975;51.978;8.472;2023-04-19T01:04:13;5.88;;;3.53;;
4857;SDS011;58975;51.978;8.472;2023-04-19T01:09:11;5.85;;;3.70;;
4857;SDS011;58975;51.978;8.472;2023-04-19T01:14:07;5.53;;;3.78;;
4857;SDS011;58975;51.978;8.472;2023-04-19T01:19:04;6.00;;;3.90;;
4857;SDS011;58975;51.978;8.472;2023-04-19T01:24:00;5.47;;;3.63;;
4857;SDS011;58975;51.978;8.472;2023-04-19T01:28:57;5.28;;;4.05;;
4857;SDS011;58975;51.978;8.472;2023-04-19T01:33:53;8.90;;;4.50;;
4857;SDS011;58975;51.978;8.472;2023-04-19T01:38:50;10.63;;;4.05;;
4857;SDS011;58975;51.978;8.472;2023-04-19T01:43:46;5.82;;;3.63;;
4857;SDS011;58975;51.978;8.472;2023-04-19T01:48:43;5.32;;;3.58;;
4857;SDS011;58975;51.978;8.472;2023-04-19T01:53:39;7.50;;;3.75;;
4857;SDS011;58975;51.978;8.472;2023-04-19T01:58:36;6.10;;;3.90;;
4857;SDS011;58975;51.978;8.472;2023-04-19T02:03:32;7.20;;;4.15;;
4857;SDS011;58975;51.978;8.472;2023-04-19T02:08:29;4.90;;;3.22;;
4857;SDS011;58975;51.978;8.472;2023-04-19T02:13:25;5.82;;;3.53;;
4857;SDS011;58975;51.978;8.472;2023-04-19T02:18:22;6.68;;;4.13;;
4857;SDS011;58975;51.978;8.472;2023-04-19T02:23:19;10.23;;;3.80;;
4857;SDS011;58975;51.978;8.472;2023-04-19T02:28:15;8.95;;;3.95;;
4857;SDS011;58975;51.978;8.472;2023-04-19T02:33:13;5.55;;;3.75;;
4857;SDS011;58975;51.978;8.472;2023-04-19T02:38:10;5.95;;;4.10;;
4857;SDS011;58975;51.978;8.472;2023-04-19T02:43:07;7.45;;;3.83;;
4857;SDS011;58975;51.978;8.472;2023-04-19T02:48:03;7.47;;;4.38;;
4857;SDS011;58975;51.978;8.472;2023-04-19T02:53:00;6.13;;;4.25;;
4857;SDS011;58975;51.978;8.472;2023-04-19T02:57:56;5.93;;;3.60;;
4857;SDS011;58975;51.978;8.472;2023-04-19T03:02:53;9.02;;;3.95;;
4857;SDS011;58975;51.978;8.472;2023-04-19T03:07:51;6.22;;;3.45;;
4857;SDS011;58975;51.978;8.472;2023-04-19T03:12:47;6.63;;;3.30;;
4857;SDS011;58975;51.978;8.472;2023-04-19T03:17:44;6.93;;;3.33;;
4857;SDS011;58975;51.978;8.472;2023-04-19T03:22:40;6.18;;;2.97;;
4857;SDS011;58975;51.978;8.472;2023-04-19T03:27:36;5.88;;;2.42;;
4857;SDS011;58975;51.978;8.472;2023-04-19T03:32:33;3.72;;;2.20;;
4857;SDS011;58975;51.978;8.472;2023-04-19T03:37:29;8.45;;;2.95;;
4857;SDS011;58975;51.978;8.472;2023-04-19T03:42:26;4.35;;;2.15;;
4857;SDS011;58975;51.978;8.472;2023-04-19T03:47:24;3.78;;;2.58;;
4857;SDS011;58975;51.978;8.472;2023-04-19T03:52:20;4.22;;;2.47;;
4857;SDS011;58975;51.978;8.472;2023-04-19T03:57:17;8.68;;;2.17;;
4857;SDS011;58975;51.978;8.472;2023-04-19T04:02:13;6.45;;;2.70;;
4857;SDS011;58975;51.978;8.472;2023-04-19T04:07:10;5.40;;;1.95;;
4857;SDS011;58975;51.978;8.472;2023-04-19T04:12:06;3.75;;;2.00;;
4857;SDS011;58975;51.978;8.472;2023-04-19T04:17:02;5.18;;;2.83;;
4857;SDS011;58975;51.978;8.472;2023-04-19T04:21:59;3.15;;;2.25;;
4857;SDS011;58975;51.978;8.472;2023-04-19T04:26:55;3.97;;;2.03;;
4857;SDS011;58975;51.978;8.472;2023-04-19T04:31:53;3.22;;;2.03;;
4857;SDS011;58975;51.978;8.472;2023-04-19T04:36:49;2.92;;;1.77;;
4857;SDS011;58975;51.978;8.472;2023-04-19T04:41:46;4.82;;;2.20;;
4857;SDS011;58975;51.978;8.472;2023-04-19T04:46:43;5.75;;;2.50;;
4857;SDS011;58975;51.978;8.472;2023-04-19T04:51:39;2.60;;;2.40;;
4857;SDS011;58975;51.978;8.472;2023-04-19T04:56:36;3.25;;;2.00;;
4857;SDS011;58975;51.978;8.472;2023-04-19T05:01:33;6.43;;;2.40;;
4857;SDS011;58975;51.978;8.472;2023-04-19T05:06:29;7.25;;;2.58;;
4857;SDS011;58975;51.978;8.472;2023-04-19T05:11:26;4.10;;;1.85;;
4857;SDS011;58975;51.978;8.472;2023-04-19T05:16:22;4.40;;;2.40;;
4857;SDS011;58975;51.978;8.472;2023-04-19T05:21:19;6.40;;;2.50;;
4857;SDS011;58975;51.978;8.472;2023-04-19T05:26:15;6.00;;;2.63;;
4857;SDS011;58975;51.978;8.472;2023-04-19T05:31:12;5.30;;;1.95;;
4857;SDS011;58975;51.978;8.472;2023-04-19T05:36:09;5.05;;;1.90;;
4857;SDS011;58975;51.978;8.472;2023-04-19T05:41:05;6.03;;;1.85;;
4857;SDS011;58975;51.978;8.472;2023-04-19T05:46:02;4.25;;;1.90;;
4857;SDS011;58975;51.978;8.472;2023-04-19T05:50:58;2.33;;;1.38;;
4857;SDS011;58975;51.978;8.472;2023-04-19T05:55:55;4.63;;;2.42;;
4857;SDS011;58975;51.978;8.472;2023-04-19T06:00:51;5.40;;;2.15;;
4857;SDS011;58975;51.978;8.472;2023-04-19T06:05:48;4.40;;;2.22;;
4857;SDS011;58975;51.978;8.472;2023-04-19T06:10:44;9.13;;;2.20;;
4857;SDS011;58975;51.978;8.472;2023-04-19T06:15:50;3.75;;;1.75;;
4857;SDS011;58975;51.978;8.472;2023-04-19T06:20:47;3.35;;;2.03;;
4857;SDS011;58975;51.978;8.472;2023-04-19T06:25:43;7.35;;;2.47;;
4857;SDS011;58975;51.978;8.472;2023-04-19T06:30:40;6.90;;;2.17;;
4857;SDS011;58975;51.978;8.472;2023-04-19T06:35:36;3.83;;;1.95;;
4857;SDS011;58975;51.978;8.472;2023-04-19T06:40:33;4.75;;;2.40;;
4857;SDS011;58975;51.978;8.472;2023-04-19T06:45:30;2.47;;;2.10;;
4857;SDS011;58975;51.978;8.472;2023-04-19T06:50:27;4.05;;;2.28;;
4857;SDS011;58975;51.978;8.472;2023-04-19T06:55:24;3.60;;;2.05;;
4857;SDS011;58975;51.978;8.472;2023-04-19T07:00:21;5.65;;;2.08;;
4857;SDS011;58975;51.978;8.472;2023-04-19T07:05:18;3.85;;;1.70;;
4857;SDS011;58975;51.978;8.472;2023-04-19T07:10:14;2.95;;;1.67;;
4857;SDS011;58975;51.978;8.472;2023-04-19T07:15:11;3.13;;;2.20;;
4857;SDS011;58975;51.978;8.472;2023-04-19T07:20:08;3.60;;;1.80;;
4857;SDS011;58975;51.978;8.472;2023-04-19T07:25:04;3.83;;;1.67;;
4857;SDS011;58975;51.978;8.472;2023-04-19T07:30:01;2.58;;;1.42;;
4857;SDS011;58975;51.978;8.472;2023-04-19T07:34:57;2.72;;;1.65;;
4857;SDS011;58975;51.978;8.472;2023-04-19T07:39:54;3.50;;;1.80;;
4857;SDS011;58975;51.978;8.472;2023-04-19T07:44:50;3.70;;;2.00;;
4857;SDS011;58975;51.978;8.472;2023-04-19T07:49:50;3.20;;;1.63;;
4857;SDS011;58975;51.978;8.472;2023-04-19T07:54:47;3.13;;;1.75;;
4857;SDS011;58975;51.978;8.472;2023-04-19T07:59:44;3.67;;;1.55;;
4857;SDS011;58975;51.978;8.472;2023-04-19T08:04:40;2.30;;;1.65;;
4857;SDS011;58975;51.978;8.472;2023-04-19T08:09:37;7.78;;;1.98;;
4857;SDS011;58975;51.978;8.472;2023-04-19T08:14:34;3.33;;;1.38;;
4857;SDS011;58975;51.978;8.472;2023-04-19T08:19:42;3.78;;;1.77;;
4857;SDS011;58975;51.978;8.472;2023-04-19T08:24:39;4.53;;;1.70;;
4857;SDS011;58975;51.978;8.472;2023-04-19T08:29:35;6.07;;;1.83;;
4857;SDS011;58975;51.978;8.472;2023-04-19T08:34:34;3.75;;;1.80;;
4857;SDS011;58975;51.978;8.472;2023-04-19T08:39:34;4.18;;;1.70;;
4857;SDS011;58975;51.978;8.472;2023-04-19T08:44:31;5.55;;;1.80;;
4857;SDS011;58975;51.978;8.472;2023-04-19T08:49:35;2.15;;;1.63;;
4857;SDS011;58975;51.978;8.472;2023-04-19T08:54:38;2.92;;;1.30;;
4857;SDS011;58975;51.978;8.472;2023-04-19T08:59:36;2.80;;;1.50;;
4857;SDS011;58975;51.978;8.472;2023-04-19T09:04:32;5.68;;;1.67;;
4857;SDS011;58975;51.978;8.472;2023-04-19T09:09:33;3.65;;;1.55;;
4857;SDS011;58975;51.978;8.472;2023-04-19T09:14:46;3.65;;;1.63;;
4857;SDS011;58975;51.978;8.472;2023-04-19T09:19:46;2.55;;;1.85;;
4857;SDS011;58975;51.978;8.472;2023-04-19T09:24:44;4.37;;;2.03;;
4857;SDS011;58975;51.978;8.472;2023-04-19T09:30:01;4.57;;;2.15;;
4857;SDS011;58975;51.978;8.472;2023-04-19T09:34:58;2.35;;;1.75;;
4857;SDS011;58975;51.978;8.472;2023-04-19T09:39:55;6.45;;;1.88;;
4857;SDS011;58975;51.978;8.472;2023-04-19T09:44:56;4.47;;;1.42;;
4857;SDS011;58975;51.978;8.472;2023-04-19T09:50:08;3.03;;;1.70;;
4857;SDS011;58975;51.978;8.472;2023-04-19T09:55:20;3.00;;;1.58;;
4857;SDS011;58975;51.978;8.472;2023-04-19T10:00:23;3.88;;;1.65;;
4857;SDS011;58975;51.978;8.472;2023-04-19T10:05:20;4.40;;;1.48;;
4857;SDS011;58975;51.978;8.472;2023-04-19T10:10:18;5.77;;;1.50;;
4857;SDS011;58975;51.978;8.472;2023-04-19T10:15:20;5.75;;;1.60;;
4857;SDS011;58975;51.978;8.472;2023-04-19T10:20:28;4.38;;;1.90;;
4857;SDS011;58975;51.978;8.472;2023-04-19T10:25:28;1.90;;;1.60;;
4857;SDS011;58975;51.978;8.472;2023-04-19T10:35:23;3.65;;;1.75;;
4857;SDS011;58975;51.978;8.472;2023-04-19T10:45:46;2.05;;;1.70;;
4857;SDS011;58975;51.978;8.472;2023-04-19T10:55:58;7.60;;;1.85;;
4857;SDS011;58975;51.978;8.472;2023-04-19T11:01:30;2.00;;;1.48;;
4857;SDS011;58975;51.978;8.472;2023-04-19T11:06:36;5.78;;;1.42;;
4857;SDS011;58975;51.978;8.472;2023-04-19T11:11:34;2.10;;;1.55;;
4857;SDS011;58975;51.978;8.472;2023-04-19T11:16:30;3.72;;;1.50;;
4857;SDS011;58975;51.978;8.472;2023-04-19T11:21:41;11.32;;;2.70;;
4857;SDS011;58975;51.978;8.472;2023-04-19T11:26:37;6.78;;;1.45;;
4857;SDS011;58975;51.978;8.472;2023-04-19T11:31:34;2.45;;;1.50;;
4857;SDS011;58975;51.978;8.472;2023-04-19T11:36:31;1.88;;;1.13;;
4857;SDS011;58975;51.978;8.472;2023-04-19T11:41:29;7.40;;;1.70;;
4857;SDS011;58975;51.978;8.472;2023-04-19T11:46:25;3.28;;;1.50;;
4857;SDS011;58975;51.978;8.472;2023-04-19T11:51:21;2.40;;;1.75;;
4857;SDS011;58975;51.978;8.472;2023-04-19T11:56:18;4.10;;;2.08;;
4857;SDS011;58975;51.978;8.472;2023-04-19T12:01:17;1.95;;;1.25;;
4857;SDS011;58975;51.978;8.472;2023-04-19T12:06:21;5.25;;;1.50;;
4857;SDS011;58975;51.978;8.472;2023-04-19T12:11:20;1.63;;;1.13;;
4857;SDS011;58975;51.978;8.472;2023-04-19T12:16:26;1.92;;;1.65;;
4857;SDS011;58975;51.978;8.472;2023-04-19T12:21:24;2.22;;;1.17;;
4857;SDS011;58975;51.978;8.472;2023-04-19T12:26:27;2.15;;;1.42;;
4857;SDS011;58975;51.978;8.472;2023-04-19T12:31:24;3.10;;;1.50;;
4857;SDS011;58975;51.978;8.472;2023-04-19T12:36:21;7.07;;;1.50;;
4857;SDS011;58975;51.978;8.472;2023-04-19T12:41:18;4.15;;;1.42;;
4857;SDS011;58975;51.978;8.472;2023-04-19T12:46:14;4.97;;;1.40;;
4857;SDS011;58975;51.978;8.472;2023-04-19T12:51:11;2.67;;;1.40;;
4857;SDS011;58975;51.978;8.472;2023-04-19T12:56:07;1.70;;;1.15;;
4857;SDS011;58975;51.978;8.472;2023-04-19T13:01:03;1.65;;;1.35;;
4857;SDS011;58975;51.978;8.472;2023-04-19T13:06:01;6.53;;;1.77;;
4857;SDS011;58975;51.978;8.472;2023-04-19T13:10:58;1.80;;;1.10;;
4857;SDS011;58975;51.978;8.472;2023-04-19T13:15:55;4.55;;;1.08;;
4857;SDS011;58975;51.978;8.472;2023-04-19T13:20:51;1.75;;;1.08;;
4857;SDS011;58975;51.978;8.472;2023-04-19T13:25:49;3.03;;;1.27;;
4857;SDS011;58975;51.978;8.472;2023-04-19T13:30:45;2.40;;;1.20;;
4857;SDS011;58975;51.978;8.472;2023-04-19T13:35:42;7.63;;;1.30;;
4857;SDS011;58975;51.978;8.472;2023-04-19T13:40:40;1.85;;;1.10;;
4857;SDS011;58975;51.978;8.472;2023-04-19T13:45:36;4.30;;;1.60;;
4857;SDS011;58975;51.978;8.472;2023-04-19T13:50:33;2.47;;;1.40;;
4857;SDS011;58975;51.978;8.472;2023-04-19T13:55:29;4.65;;;1.50;;
4857;SDS011;58975;51.978;8.472;2023-04-19T14:00:26;1.38;;;0.95;;
4857;SDS011;58975;51.978;8.472;2023-04-19T14:05:23;2.15;;;1.20;;
4857;SDS011;58975;51.978;8.472;2023-04-19T14:10:19;4.80;;;1.08;;
4857;SDS011;58975;51.978;8.472;2023-04-19T14:15:15;1.40;;;1.10;;
4857;SDS011;58975;51.978;8.472;2023-04-19T14:20:12;4.50;;;1.60;;
4857;SDS011;58975;51.978;8.472;2023-04-19T14:25:08;9.68;;;1.40;;
4857;SDS011;58975;51.978;8.472;2023-04-19T14:30:05;5.57;;;1.52;;
4857;SDS011;58975;51.978;8.472;2023-04-19T14:35:03;3.17;;;1.52;;
4857;SDS011;58975;51.978;8.472;2023-04-19T14:40:00;5.47;;;1.15;;
4857;SDS011;58975;51.978;8.472;2023-04-19T14:44:56;3.45;;;1.10;;
4857;SDS011;58975;51.978;8.472;2023-04-19T14:49:53;3.58;;;1.42;;
4857;SDS011;58975;51.978;8.472;2023-04-19T14:54:49;7.13;;;1.90;;
4857;SDS011;58975;51.978;8.472;2023-04-19T14:59:46;5.25;;;1.75;;
4857;SDS011;58975;51.978;8.472;2023-04-19T15:04:42;2.65;;;1.20;;
4857;SDS011;58975;51.978;8.472;2023-04-19T15:09:39;3.08;;;1.80;;
4857;SDS011;58975;51.978;8.472;2023-04-19T15:14:37;4.18;;;2.45;;
4857;SDS011;58975;51.978;8.472;2023-04-19T15:19:33;4.88;;;2.13;;
4857;SDS011;58975;51.978;8.472;2023-04-19T15:24:30;5.70;;;1.88;;
4857;SDS011;58975;51.978;8.472;2023-04-19T15:29:29;5.75;;;1.70;;
4857;SDS011;58975;51.978;8.472;2023-04-19T15:34:25;2.80;;;1.67;;
4857;SDS011;58975;51.978;8.472;2023-04-19T15:39:21;3.03;;;1.50;;
4857;SDS011;58975;51.978;8.472;2023-04-19T15:44:18;6.60;;;2.78;;
4857;SDS011;58975;51.978;8.472;2023-04-19T15:49:14;6.70;;;1.83;;
4857;SDS011;58975;51.978;8.472;2023-04-19T15:54:12;2.97;;;1.92;;
4857;SDS011;58975;51.978;8.472;2023-04-19T15:59:09;3.55;;;2.45;;
4857;SDS011;58975;51.978;8.472;2023-04-19T16:04:06;3.33;;;2.10;;
4857;SDS011;58975;51.978;8.472;2023-04-19T16:09:03;2.10;;;1.80;;
4857;SDS011;58975;51.978;8.472;2023-04-19T16:13:59;3.63;;;2.42;;
4857;SDS011;58975;51.978;8.472;2023-04-19T16:18:55;3.22;;;1.90;;
4857;SDS011;58975;51.978;8.472;2023-04-19T16:23:52;5.40;;;1.70;;
4857;SDS011;58975;51.978;8.472;2023-04-19T16:28:48;3.10;;;2.00;;
4857;SDS011;58975;51.978;8.472;2023-04-19T16:33:45;2.80;;;2.00;;
4857;SDS011;58975;51.978;8.472;2023-04-19T16:38:41;6.30;;;2.53;;
4857;SDS011;58975;51.978;8.472;2023-04-19T16:43:37;6.53;;;2.15;;
4857;SDS011;58975;51.978;8.472;2023-04-19T16:48:34;2.33;;;2.03;;
4857;SDS011;58975;51.978;8.472;2023-04-19T16:53:30;9.55;;;2.22;;
4857;SDS011;58975;51.978;8.472;2023-04-19T16:58:27;3.13;;;1.55;;
4857;SDS011;58975;51.978;8.472;2023-04-19T17:03:23;5.80;;;1.75;;
4857;SDS011;58975;51.978;8.472;2023-04-19T17:08:21;2.70;;;1.73;;
4857;SDS011;58975;51.978;8.472;2023-04-19T17:13:17;4.38;;;1.35;;
4857;SDS011;58975;51.978;8.472;2023-04-19T17:18:14;5.05;;;1.92;;
4857;SDS011;58975;51.978;8.472;2023-04-19T17:23:10;4.03;;;1.95;;
4857;SDS011;58975;51.978;8.472;2023-04-19T17:28:07;3.17;;;1.67;;
4857;SDS011;58975;51.978;8.472;2023-04-19T17:33:03;4.95;;;1.40;;
4857;SDS011;58975;51.978;8.472;2023-04-19T17:37:59;4.20;;;2.05;;
4857;SDS011;58975;51.978;8.472;2023-04-19T17:42:56;11.38;;;2.30;;
4857;SDS011;58975;51.978;8.472;2023-04-19T17:47:52;4.00;;;2.05;;
4857;SDS011;58975;51.978;8.472;2023-04-19T17:52:51;2.63;;;1.88;;
4857;SDS011;58975;51.978;8.472;2023-04-19T17:57:49;4.88;;;1.70;;
4857;SDS011;58975;51.978;8.472;2023-04-19T18:02:46;3.75;;;2.00;;
4857;SDS011;58975;51.978;8.472;2023-04-19T18:07:42;3.70;;;2.40;;
4857;SDS011;58975;51.978;8.472;2023-04-19T18:12:38;4.10;;;2.30;;
4857;SDS011;58975;51.978;8.472;2023-04-19T18:17:35;8.57;;;2.28;;
4857;SDS011;58975;51.978;8.472;2023-04-19T18:22:31;5.93;;;1.88;;
4857;SDS011;58975;51.978;8.472;2023-04-19T18:27:28;6.15;;;1.73;;
4857;SDS011;58975;51.978;8.472;2023-04-19T18:32:27;6.93;;;2.20;;
4857;SDS011;58975;51.978;8.472;2023-04-19T18:37:25;3.17;;;2.13;;
4857;SDS011;58975;51.978;8.472;2023-04-19T18:42:21;5.55;;;1.98;;
4857;SDS011;58975;51.978;8.472;2023-04-19T18:47:18;5.50;;;2.08;;
4857;SDS011;58975;51.978;8.472;2023-04-19T18:52:15;6.78;;;2.17;;
4857;SDS011;58975;51.978;8.472;2023-04-19T18:57:13;8.35;;;2.70;;
4857;SDS011;58975;51.978;8.472;2023-04-19T19:02:18;3.45;;;1.98;;
4857;SDS011;58975;51.978;8.472;2023-04-19T19:07:14;4.72;;;2.00;;
4857;SDS011;58975;51.978;8.472;2023-04-19T19:12:30;3.55;;;1.90;;
4857;SDS011;58975;51.978;8.472;2023-04-19T19:17:26;5.57;;;2.22;;
4857;SDS011;58975;51.978;8.472;2023-04-19T19:22:23;9.07;;;1.90;;
4857;SDS011;58975;51.978;8.472;2023-04-19T19:27:24;6.13;;;2.47;;
4857;SDS011;58975;51.978;8.472;2023-04-19T19:32:20;8.05;;;2.30;;
4857;SDS011;58975;51.978;8.472;2023-04-19T19:37:17;2.53;;;2.00;;
4857;SDS011;58975;51.978;8.472;2023-04-19T19:42:16;4.97;;;2.15;;
4857;SDS011;58975;51.978;8.472;2023-04-19T19:47:13;4.07;;;2.67;;
4857;SDS011;58975;51.978;8.472;2023-04-19T19:52:12;5.45;;;2.25;;
4857;SDS011;58975;51.978;8.472;2023-04-19T19:57:08;6.32;;;2.40;;
4857;SDS011;58975;51.978;8.472;2023-04-19T20:02:25;8.45;;;1.90;;
4857;SDS011;58975;51.978;8.472;2023-04-19T20:07:22;3.28;;;1.88;;
4857;SDS011;58975;51.978;8.472;2023-04-19T20:12:39;4.45;;;2.20;;
4857;SDS011;58975;51.978;8.472;2023-04-19T20:17:40;5.63;;;1.75;;
4857;SDS011;58975;51.978;8.472;2023-04-19T20:22:36;3.97;;;2.10;;
4857;SDS011;58975;51.978;8.472;2023-04-19T20:27:33;6.07;;;2.08;;
4857;SDS011;58975;51.978;8.472;2023-04-19T20:32:30;4.25;;;1.95;;
4857;SDS011;58975;51.978;8.472;2023-04-19T20:37:26;3.47;;;2.00;;
4857;SDS011;58975;51.978;8.472;2023-04-19T20:42:24;2.42;;;1.60;;
4857;SDS011;58975;51.978;8.472;2023-04-19T20:47:21;2.47;;;1.80;;
4857;SDS011;58975;51.978;8.472;2023-04-19T20:52:19;8.70;;;2.13;;
4857;SDS011;58975;51.978;8.472;2023-04-19T20:57:16;4.47;;;2.67;;
4857;SDS011;58975;51.978;8.472;2023-04-19T21:02:12;2.42;;;1.75;;
4857;SDS011;58975;51.978;8.472;2023-04-19T21:07:09;4.82;;;2.67;;
4857;SDS011;58975;51.978;8.472;2023-04-19T21:12:05;5.05;;;2.00;;
4857;SDS011;58975;51.978;8.472;2023-04-19T21:17:02;4.28;;;1.85;;
4857;SDS011;58975;51.978;8.472;2023-04-19T21:21:58;5.93;;;1.85;;
4857;SDS011;58975;51.978;8.472;2023-04-19T21:26:55;3.05;;;1.90;;
4857;SDS011;58975;51.978;8.472;2023-04-19T21:31:52;3.45;;;1.95;;
4857;SDS011;58975;51.978;8.472;2023-04-19T21:36:49;7.70;;;2.40;;
4857;SDS011;58975;51.978;8.472;2023-04-19T21:41:45;3.55;;;2.70;;
4857;SDS011;58975;51.978;8.472;2023-04-19T21:46:42;3.58;;;2.58;;
4857;SDS011;58975;51.978;8.472;2023-04-19T21:51:38;5.72;;;2.22;;
4857;SDS011;58975;51.978;8.472;2023-04-19T21:56:36;9.77;;;2.30;;
4857;SDS011;58975;51.978;8.472;2023-04-19T22:01:32;4.45;;;2.30;;
4857;SDS011;58975;51.978;8.472;2023-04-19T22:06:29;5.93;;;2.55;;
4857;SDS011;58975;51.978;8.472;2023-04-19T22:11:26;6.03;;;2.22;;
4857;SDS011;58975;51.978;8.472;2023-04-19T22:16:24;2.60;;;2.08;;
4857;SDS011;58975;51.978;8.472;2023-04-19T22:21:23;4.80;;;2.33;;
4857;SDS011;58975;51.978;8.472;2023-04-19T22:26:20;3.35;;;2.08;;
4857;SDS011;58975;51.978;8.472;2023-04-19T22:31:17;6.45;;;2.05;;
4857;SDS011;58975;51.978;8.472;2023-04-19T22:36:14;4.80;;;2.20;;
4857;SDS011;58975;51.978;8.472;2023-04-19T22:41:10;5.45;;;2.35;;
4857;SDS011;58975;51.978;8.472;2023-04-19T22:46:07;8.75;;;1.88;;
4857;SDS011;58975;51.978;8.472;2023-04-19T22:51:03;7.65;;;2.00;;
4857;SDS011;58975;51.978;8.472;2023-04-19T22:56:00;3.10;;;1.85;;
4857;SDS011;58975;51.978;8.472;2023-04-19T23:00:56;2.08;;;1.70;;
4857;SDS011;58975;51.978;8.472;2023-04-19T23:05:52;5.25;;;2.28;;
4857;SDS011;58975;51.978;8.472;2023-04-19T23:10:49;3.22;;;1.63;;
4857;SDS011;58975;51.978;8.472;2023-04-19T23:15:47;4.38;;;1.83;;
4857;SDS011;58975;51.978;8.472;2023-04-19T23:20:43;2.78;;;1.52;;
4857;SDS011;58975;51.978;8.472;2023-04-19T23:25:39;3.75;;;1.73;;
4857;SDS011;58975;51.978;8.472;2023-04-19T23:30:36;2.30;;;1.60;;
4857;SDS011;58975;51.978;8.472;2023-04-19T23:35:32;2.85;;;1.42;;
4857;SDS011;58975;51.978;8.472;2023-04-19T23:40:29;2.58;;;1.63;;
4857;SDS011;58975;51.978;8.472;2023-04-19T23:45:25;3.65;;;1.50;;
4857;SDS011;58975;51.978;8.472;2023-04-19T23:50:22;5.00;;;1.85;;
4857;SDS011;58975;51.978;8.472;2023-04-19T23:55:18;3.95;;;1.98;;
